Time;durP1;ratioP1;P1;durP2;ratioP2;P2;SDS_P1;SDS_P2;PMS_P1;PMS_P2;Temp;Humidity;BMP_temperature;BMP_pressure;BME280_temperature;BME280_humidity;BME280_pressure;Samples;Min_cycle;Max_cycle;Signal;HPM_P1;HPM_P2
2021/11/06 00:00:44;;;;;;;12.07;6.73;;;;;;;;;;5094227;28;20287;-65
2021/11/06 00:03:12;;;;;;;8.43;6.30;;;;;;;;;;5093335;28;20237;-65
2021/11/06 00:05:40;;;;;;;8.27;6.47;;;;;;;;;;5097386;28;20256;-65
2021/11/06 00:08:08;;;;;;;9.43;6.37;;;;;;;;;;5097993;28;20301;-65
2021/11/06 00:10:36;;;;;;;8.67;6.37;;;;;;;;;;5095383;28;20284;-65
2021/11/06 00:13:04;;;;;;;10.00;5.93;;;;;;;;;;5097264;28;20572;-65
2021/11/06 00:15:34;;;;;;;10.03;6.60;;;;;;;;;;5094330;28;20225;-65
2021/11/06 00:18:02;;;;;;;8.53;7.00;;;;;;;;;;5096246;28;20213;-65
2021/11/06 00:20:30;;;;;;;9.93;6.47;;;;;;;;;;5081176;28;20212;-65
2021/11/06 00:22:58;;;;;;;10.93;6.80;;;;;;;;;;5081201;28;20212;-65
2021/11/06 00:25:26;;;;;;;9.43;6.63;;;;;;;;;;5089743;28;20288;-65
2021/11/06 00:27:54;;;;;;;8.40;5.90;;;;;;;;;;5098831;28;20718;-65
2021/11/06 00:30:22;;;;;;;13.60;7.47;;;;;;;;;;5080468;28;20614;-64
2021/11/06 00:32:51;;;;;;;10.60;7.03;;;;;;;;;;5080711;28;20293;-65
2021/11/06 00:35:19;;;;;;;9.33;6.30;;;;;;;;;;5080516;28;20317;-65
2021/11/06 00:37:47;;;;;;;10.33;6.40;;;;;;;;;;5080858;28;20216;-65
2021/11/06 00:40:16;;;;;;;9.07;6.50;;;;;;;;;;5098966;28;20956;-65
2021/11/06 00:42:44;;;;;;;9.57;6.43;;;;;;;;;;5096654;28;20284;-64
2021/11/06 00:45:12;;;;;;;10.93;6.27;;;;;;;;;;5100505;28;20252;-65
2021/11/06 00:47:41;;;;;;;9.90;6.47;;;;;;;;;;5100428;28;20228;-65
2021/11/06 00:50:12;;;;;;;10.10;6.80;;;;;;;;;;5100362;28;20642;-65
2021/11/06 00:52:40;;;;;;;9.27;6.97;;;;;;;;;;5100909;28;20283;-65
2021/11/06 00:55:09;;;;;;;9.60;6.53;;;;;;;;;;5100724;28;20714;-65
2021/11/06 00:57:37;;;;;;;9.37;6.60;;;;;;;;;;5100656;28;20244;-65
2021/11/06 01:00:06;;;;;;;9.50;6.10;;;;;;;;;;5100622;28;20284;-65
2021/11/06 01:02:34;;;;;;;9.60;6.60;;;;;;;;;;5100093;28;20621;-65
2021/11/06 01:05:03;;;;;;;10.00;6.53;;;;;;;;;;5100751;28;20240;-65
2021/11/06 01:07:32;;;;;;;10.47;5.97;;;;;;;;;;5100698;28;20205;-65
2021/11/06 01:10:00;;;;;;;10.37;6.57;;;;;;;;;;5100117;28;20229;-65
2021/11/06 01:12:28;;;;;;;8.23;6.80;;;;;;;;;;5100252;28;20288;-65
2021/11/06 01:14:56;;;;;;;14.07;5.73;;;;;;;;;;5100247;28;20255;-65
2021/11/06 01:17:24;;;;;;;7.43;6.33;;;;;;;;;;5100122;28;20293;-65
2021/11/06 01:19:56;;;;;;;7.20;6.47;;;;;;;;;;5100223;28;20261;-65
2021/11/06 01:22:24;;;;;;;9.13;6.37;;;;;;;;;;5099984;28;20237;-65
2021/11/06 01:24:53;;;;;;;7.30;6.40;;;;;;;;;;5100372;28;20288;-65
2021/11/06 01:27:21;;;;;;;9.03;6.10;;;;;;;;;;5086961;28;20293;-65
2021/11/06 01:29:49;;;;;;;11.97;6.63;;;;;;;;;;5084005;28;20310;-65
2021/11/06 01:32:17;;;;;;;10.63;6.33;;;;;;;;;;5079655;28;20269;-65
2021/11/06 01:34:45;;;;;;;8.23;6.13;;;;;;;;;;5079685;28;20237;-65
2021/11/06 01:37:13;;;;;;;8.67;6.47;;;;;;;;;;5079602;28;20592;-65
2021/11/06 01:39:41;;;;;;;8.63;6.53;;;;;;;;;;5093266;28;20316;-65
2021/11/06 01:42:11;;;;;;;9.33;6.83;;;;;;;;;;5090886;28;20210;-65
2021/11/06 01:44:39;;;;;;;9.57;7.23;;;;;;;;;;5079798;28;20293;-65
2021/11/06 01:47:09;;;;;;;9.37;6.90;;;;;;;;;;5079220;28;20304;-65
2021/11/06 01:49:38;;;;;;;8.27;5.77;;;;;;;;;;5079500;28;20257;-65
2021/11/06 01:52:06;;;;;;;8.70;6.63;;;;;;;;;;5079231;28;20288;-65
2021/11/06 01:54:34;;;;;;;9.77;7.27;;;;;;;;;;5079367;28;20285;-65
2021/11/06 01:57:03;;;;;;;10.20;6.00;;;;;;;;;;5079277;28;20262;-65
2021/11/06 01:59:32;;;;;;;10.37;6.33;;;;;;;;;;5079235;28;20232;-65
2021/11/06 02:02:01;;;;;;;9.37;5.93;;;;;;;;;;5078662;28;20261;-65
2021/11/06 02:04:29;;;;;;;9.57;6.20;;;;;;;;;;5079021;28;20217;-65
2021/11/06 02:06:57;;;;;;;9.30;6.83;;;;;;;;;;5079104;28;20286;-65
2021/11/06 02:09:25;;;;;;;9.60;6.60;;;;;;;;;;5078831;28;20321;-65
2021/11/06 02:11:54;;;;;;;8.00;6.27;;;;;;;;;;5078849;28;20206;-65
2021/11/06 02:14:22;;;;;;;8.93;6.30;;;;;;;;;;5079017;28;20245;-65
2021/11/06 02:16:52;;;;;;;7.47;6.30;;;;;;;;;;5078244;28;20741;-65
2021/11/06 02:19:26;;;;;;;14.47;6.30;;;;;;;;;;5078975;28;20226;-66
2021/11/06 02:21:56;;;;;;;7.80;5.70;;;;;;;;;;5079081;28;20237;-65
2021/11/06 02:24:25;;;;;;;8.63;6.20;;;;;;;;;;5078132;28;20210;-65
2021/11/06 02:26:53;;;;;;;10.27;5.90;;;;;;;;;;5095384;28;20296;-65
2021/11/06 02:29:22;;;;;;;9.03;5.93;;;;;;;;;;5086824;28;20309;-65
2021/11/06 02:31:50;;;;;;;8.70;5.73;;;;;;;;;;5081924;28;20288;-65
2021/11/06 02:34:18;;;;;;;9.23;5.77;;;;;;;;;;5098646;28;20293;-65
2021/11/06 02:36:46;;;;;;;7.40;5.37;;;;;;;;;;5080881;28;20265;-65
2021/11/06 02:39:15;;;;;;;8.33;6.10;;;;;;;;;;5088338;28;20791;-65
2021/11/06 02:41:44;;;;;;;8.43;6.30;;;;;;;;;;5093879;28;20572;-65
2021/11/06 02:44:14;;;;;;;7.53;5.33;;;;;;;;;;5087574;28;20269;-65
2021/11/06 02:46:42;;;;;;;10.03;6.20;;;;;;;;;;5098292;28;20284;-65
2021/11/06 02:49:12;;;;;;;6.97;5.43;;;;;;;;;;5098440;28;20229;-65
2021/11/06 02:51:40;;;;;;;7.37;5.80;;;;;;;;;;5098365;28;20210;-65
2021/11/06 02:54:08;;;;;;;9.37;5.67;;;;;;;;;;5098756;28;20288;-65
2021/11/06 02:56:37;;;;;;;7.17;5.60;;;;;;;;;;5098360;28;20240;-65
2021/11/06 02:59:05;;;;;;;6.60;5.13;;;;;;;;;;5098563;28;20224;-65
2021/11/06 03:01:36;;;;;;;8.17;6.10;;;;;;;;;;5098232;28;20233;-65
2021/11/06 03:04:07;;;;;;;8.17;6.23;;;;;;;;;;5098339;28;20707;-65
2021/11/06 03:06:35;;;;;;;9.07;5.60;;;;;;;;;;5097947;28;20203;-65
2021/11/06 03:09:03;;;;;;;7.83;6.23;;;;;;;;;;5098069;28;20236;-65
2021/11/06 03:11:32;;;;;;;7.80;5.80;;;;;;;;;;5098339;28;20233;-66
2021/11/06 03:14:02;;;;;;;11.20;6.30;;;;;;;;;;5098515;28;20292;-65
2021/11/06 03:16:30;;;;;;;9.10;5.60;;;;;;;;;;5097990;28;20217;-65
2021/11/06 03:18:58;;;;;;;9.30;6.13;;;;;;;;;;5097919;28;20653;-65
2021/11/06 03:21:28;;;;;;;9.97;6.10;;;;;;;;;;5098227;28;20243;-65
2021/11/06 03:23:56;;;;;;;8.30;6.10;;;;;;;;;;5097755;28;20209;-66
2021/11/06 03:26:24;;;;;;;7.60;5.57;;;;;;;;;;5097766;28;20204;-65
2021/11/06 03:28:52;;;;;;;9.93;5.90;;;;;;;;;;5089708;28;20769;-65
2021/11/06 03:31:21;;;;;;;9.70;6.37;;;;;;;;;;5077238;28;20289;-65
2021/11/06 03:33:49;;;;;;;8.43;5.90;;;;;;;;;;5077709;28;20216;-65
2021/11/06 03:36:17;;;;;;;9.47;6.37;;;;;;;;;;5076658;28;20290;-65
2021/11/06 03:38:45;;;;;;;8.03;6.27;;;;;;;;;;5083430;28;20655;-65
2021/11/06 03:41:14;;;;;;;7.20;5.77;;;;;;;;;;5096805;28;20213;-65
2021/11/06 03:43:42;;;;;;;8.10;6.00;;;;;;;;;;5077656;28;20208;-65
2021/11/06 03:46:10;;;;;;;8.40;5.40;;;;;;;;;;5077194;28;20681;-65
2021/11/06 03:48:39;;;;;;;8.80;5.67;;;;;;;;;;5077355;28;20230;-65
2021/11/06 03:51:07;;;;;;;8.70;5.27;;;;;;;;;;5077063;28;20576;-65
2021/11/06 03:53:35;;;;;;;9.97;6.03;;;;;;;;;;5077638;28;20216;-65
2021/11/06 03:56:03;;;;;;;6.97;5.50;;;;;;;;;;5077577;28;20288;-65
2021/11/06 03:58:31;;;;;;;9.70;5.87;;;;;;;;;;5077243;28;20601;-65
2021/11/06 04:01:00;;;;;;;10.47;5.97;;;;;;;;;;5077107;28;20296;-65
2021/11/06 04:03:28;;;;;;;9.53;6.10;;;;;;;;;;5077066;28;20324;-65
2021/11/06 04:05:58;;;;;;;8.57;6.30;;;;;;;;;;5077054;28;20305;-65
2021/11/06 04:08:26;;;;;;;6.53;5.40;;;;;;;;;;5077342;28;20705;-65
2021/11/06 04:10:54;;;;;;;12.37;6.13;;;;;;;;;;5077104;28;20294;-65
2021/11/06 04:13:22;;;;;;;9.37;6.63;;;;;;;;;;5077291;28;20212;-65
2021/11/06 04:15:50;;;;;;;8.17;5.27;;;;;;;;;;5077339;28;20243;-65
2021/11/06 04:18:18;;;;;;;9.87;6.17;;;;;;;;;;5077375;28;20294;-65
2021/11/06 04:20:46;;;;;;;9.57;5.80;;;;;;;;;;5077551;28;20293;-65
2021/11/06 04:23:15;;;;;;;12.20;7.00;;;;;;;;;;5077050;28;20737;-65
2021/11/06 04:25:45;;;;;;;8.77;5.90;;;;;;;;;;5084125;28;20204;-65
2021/11/06 04:28:13;;;;;;;10.50;6.40;;;;;;;;;;5094990;28;20308;-65
2021/11/06 04:30:41;;;;;;;9.33;6.53;;;;;;;;;;5077231;28;20273;-65
2021/11/06 04:33:09;;;;;;;10.80;6.10;;;;;;;;;;5076511;28;20634;-64
2021/11/06 04:35:37;;;;;;;10.53;6.67;;;;;;;;;;5077142;28;20232;-65
2021/11/06 04:38:05;;;;;;;9.60;6.70;;;;;;;;;;5077079;28;20300;-65
2021/11/06 04:40:35;;;;;;;10.50;7.23;;;;;;;;;;5097387;28;20208;-65
2021/11/06 04:43:03;;;;;;;9.17;6.77;;;;;;;;;;5081221;28;20728;-65
2021/11/06 04:45:31;;;;;;;9.00;6.73;;;;;;;;;;5082399;28;20225;-65
2021/11/06 04:47:59;;;;;;;9.20;7.70;;;;;;;;;;5100333;28;20462;-65
2021/11/06 04:50:27;;;;;;;8.07;6.60;;;;;;;;;;5100878;28;20443;-65
2021/11/06 04:52:55;;;;;;;10.37;7.10;;;;;;;;;;5100889;28;20526;-65
2021/11/06 04:55:23;;;;;;;11.20;7.70;;;;;;;;;;5100815;28;20439;-64
2021/11/06 04:57:53;;;;;;;10.97;7.37;;;;;;;;;;5100527;28;21088;-65
2021/11/06 05:00:21;;;;;;;12.13;7.27;;;;;;;;;;5100832;28;20452;-65
2021/11/06 05:02:49;;;;;;;10.80;7.30;;;;;;;;;;5100188;28;20558;-65
2021/11/06 05:05:17;;;;;;;13.00;8.27;;;;;;;;;;5100181;28;20478;-65
2021/11/06 05:07:45;;;;;;;13.77;8.00;;;;;;;;;;5100516;28;20444;-65
2021/11/06 05:10:13;;;;;;;8.70;6.90;;;;;;;;;;5100725;28;20538;-65
2021/11/06 05:12:41;;;;;;;12.03;8.37;;;;;;;;;;5100420;28;20868;-65
2021/11/06 05:15:11;;;;;;;13.27;8.40;;;;;;;;;;5100635;28;20475;-64
2021/11/06 05:17:39;;;;;;;11.10;6.93;;;;;;;;;;5099779;28;20570;-64
2021/11/06 05:20:07;;;;;;;13.23;8.27;;;;;;;;;;5100327;28;20263;-65
2021/11/06 05:22:36;;;;;;;10.97;7.57;;;;;;;;;;5100461;28;20531;-65
2021/11/06 05:25:05;;;;;;;10.90;7.90;;;;;;;;;;5100472;28;20530;-65
2021/11/06 05:27:33;;;;;;;12.13;8.43;;;;;;;;;;5100270;28;20444;-65
2021/11/06 05:30:02;;;;;;;11.63;8.00;;;;;;;;;;5082465;28;20515;-64
2021/11/06 05:32:31;;;;;;;12.73;7.67;;;;;;;;;;5079521;28;20540;-65
2021/11/06 05:34:59;;;;;;;11.43;7.60;;;;;;;;;;5079716;28;20279;-65
2021/11/06 05:37:27;;;;;;;12.87;8.87;;;;;;;;;;5079911;28;20234;-65
2021/11/06 05:39:55;;;;;;;14.00;9.47;;;;;;;;;;5095522;28;20552;-65
2021/11/06 05:42:23;;;;;;;13.50;9.03;;;;;;;;;;5096973;28;20459;-65
2021/11/06 05:44:51;;;;;;;15.27;8.73;;;;;;;;;;5093225;28;20452;-65
2021/11/06 05:47:19;;;;;;;14.27;9.73;;;;;;;;;;5099608;28;20512;-65
2021/11/06 05:49:49;;;;;;;13.13;9.20;;;;;;;;;;5099635;28;20556;-65
2021/11/06 05:52:33;;;;;;;12.33;8.50;;;;;;;;;;5099503;28;20209;-65
2021/11/06 05:55:01;;;;;;;15.60;8.20;;;;;;;;;;5099620;28;20210;-65
2021/11/06 05:57:30;;;;;;;14.20;9.43;;;;;;;;;;5099857;28;20292;-65
2021/11/06 05:59:58;;;;;;;17.67;8.77;;;;;;;;;;5098513;28;20308;-65
2021/11/06 06:02:26;;;;;;;12.43;8.27;;;;;;;;;;5098893;28;20768;-65
2021/11/06 06:04:55;;;;;;;13.87;9.27;;;;;;;;;;5099098;28;20240;-65
2021/11/06 06:07:23;;;;;;;16.57;8.50;;;;;;;;;;5099371;28;20727;-65
2021/11/06 06:09:51;;;;;;;12.57;8.73;;;;;;;;;;5099323;28;20272;-65
2021/11/06 06:12:19;;;;;;;13.93;8.47;;;;;;;;;;5096193;28;20534;-70
2021/11/06 06:14:47;;;;;;;15.93;9.43;;;;;;;;;;5095470;28;20236;-72
2021/11/06 06:17:15;;;;;;;13.83;8.50;;;;;;;;;;5098459;28;20305;-72
2021/11/06 06:19:43;;;;;;;12.60;8.43;;;;;;;;;;5098305;28;20570;-73
2021/11/06 06:22:13;;;;;;;13.67;8.70;;;;;;;;;;5098964;28;20288;-72
2021/11/06 06:24:41;;;;;;;17.10;8.67;;;;;;;;;;5096106;28;20483;-73
2021/11/06 06:27:09;;;;;;;14.73;8.67;;;;;;;;;;5097027;28;20236;-74
2021/11/06 06:29:37;;;;;;;14.17;9.50;;;;;;;;;;5092548;28;20217;-74
2021/11/06 06:32:05;;;;;;;13.93;9.13;;;;;;;;;;5088648;28;20241;-73
2021/11/06 06:34:33;;;;;;;12.97;8.40;;;;;;;;;;5098418;28;20202;-73
2021/11/06 06:37:01;;;;;;;14.00;9.53;;;;;;;;;;5091074;28;20728;-72
2021/11/06 06:39:30;;;;;;;12.97;8.17;;;;;;;;;;5085281;28;20226;-72
2021/11/06 06:42:00;;;;;;;14.50;8.67;;;;;;;;;;5088298;28;20202;-72
2021/11/06 06:44:27;;;;;;;15.03;8.17;;;;;;;;;;5087893;28;20516;-72
2021/11/06 06:46:56;;;;;;;14.80;8.33;;;;;;;;;;5089518;28;20443;-62
2021/11/06 06:49:24;;;;;;;11.87;8.70;;;;;;;;;;5093050;28;20751;-64
2021/11/06 06:51:52;;;;;;;13.90;9.03;;;;;;;;;;5091445;28;20217;-64
2021/11/06 06:54:21;;;;;;;11.17;8.63;;;;;;;;;;5098701;28;20208;-64
2021/11/06 06:56:50;;;;;;;13.03;8.20;;;;;;;;;;5098613;28;20288;-65
2021/11/06 06:59:18;;;;;;;11.67;8.20;;;;;;;;;;5098256;28;20487;-64
2021/11/06 07:01:47;;;;;;;11.60;8.53;;;;;;;;;;5097963;28;20546;-64
2021/11/06 07:04:15;;;;;;;10.70;7.57;;;;;;;;;;5098300;28;20511;-64
2021/11/06 07:06:43;;;;;;;10.47;8.30;;;;;;;;;;5097856;28;20443;-64
2021/11/06 07:09:11;;;;;;;14.07;8.23;;;;;;;;;;5096793;28;20466;-65
2021/11/06 07:11:39;;;;;;;11.93;7.93;;;;;;;;;;5085802;28;20527;-65
2021/11/06 07:14:09;;;;;;;9.80;7.80;;;;;;;;;;5090675;28;20436;-65
2021/11/06 07:16:37;;;;;;;12.17;7.30;;;;;;;;;;5091682;28;20255;-63
2021/11/06 07:19:06;;;;;;;11.93;7.43;;;;;;;;;;5090197;28;20975;-63
2021/11/06 07:21:34;;;;;;;11.63;8.20;;;;;;;;;;5092085;28;20255;-63
2021/11/06 07:24:02;;;;;;;10.40;7.77;;;;;;;;;;5078293;28;20198;-64
2021/11/06 07:26:30;;;;;;;10.50;6.77;;;;;;;;;;5092292;28;20201;-63
2021/11/06 07:28:59;;;;;;;11.50;8.43;;;;;;;;;;5099933;28;20217;-64
2021/11/06 07:31:28;;;;;;;11.30;8.43;;;;;;;;;;5101607;28;20242;-64
2021/11/06 07:33:56;;;;;;;9.07;6.80;;;;;;;;;;5108340;28;20210;-64
2021/11/06 07:36:25;;;;;;;9.87;6.67;;;;;;;;;;5103438;28;20197;-64
2021/11/06 07:38:53;;;;;;;14.57;8.33;;;;;;;;;;5099804;28;20216;-64
2021/11/06 07:41:22;;;;;;;13.07;9.10;;;;;;;;;;5115951;28;20211;-64
2021/11/06 07:43:50;;;;;;;12.60;8.70;;;;;;;;;;5097433;28;20259;-63
2021/11/06 07:46:18;;;;;;;11.10;7.33;;;;;;;;;;5096842;28;20220;-64
2021/11/06 07:48:49;;;;;;;11.30;8.40;;;;;;;;;;5100451;28;20228;-64
2021/11/06 07:51:17;;;;;;;11.77;7.83;;;;;;;;;;5094519;28;20681;-64
2021/11/06 07:53:46;;;;;;;9.23;7.10;;;;;;;;;;5085981;28;20212;-63
2021/11/06 07:56:15;;;;;;;11.63;7.90;;;;;;;;;;5097570;28;20212;-63
2021/11/06 07:58:43;;;;;;;9.93;7.10;;;;;;;;;;5089732;28;20229;-63
2021/11/06 08:01:11;;;;;;;14.57;7.20;;;;;;;;;;5087259;28;20716;-64
2021/11/06 08:03:39;;;;;;;12.90;8.87;;;;;;;;;;5090637;28;20209;-63
2021/11/06 08:06:08;;;;;;;10.80;8.00;;;;;;;;;;5087262;28;20638;-63
2021/11/06 08:08:36;;;;;;;18.57;12.07;;;;;;;;;;5089597;28;20308;-63
2021/11/06 08:11:04;;;;;;;11.17;8.10;;;;;;;;;;5097413;28;20566;-62
2021/11/06 08:13:34;;;;;;;12.00;7.70;;;;;;;;;;5097452;28;20236;-63
2021/11/06 08:16:02;;;;;;;15.23;8.50;;;;;;;;;;5078507;28;20206;-63
2021/11/06 08:18:30;;;;;;;11.53;8.73;;;;;;;;;;5077003;28;20261;-63
2021/11/06 08:20:59;;;;;;;10.87;7.50;;;;;;;;;;5087852;28;20210;-63
2021/11/06 08:23:28;;;;;;;12.77;7.57;;;;;;;;;;5080689;28;20214;-63
2021/11/06 08:25:56;;;;;;;11.33;8.40;;;;;;;;;;5089527;28;20205;-63
2021/11/06 08:28:24;;;;;;;11.87;8.17;;;;;;;;;;5096578;28;20636;-63
2021/11/06 08:30:52;;;;;;;12.13;7.33;;;;;;;;;;5080711;28;20262;-63
2021/11/06 08:33:20;;;;;;;11.73;8.33;;;;;;;;;;5080780;28;20290;-63
2021/11/06 08:35:48;;;;;;;10.87;7.33;;;;;;;;;;5080633;28;20289;-63
2021/11/06 08:38:16;;;;;;;12.43;8.50;;;;;;;;;;5095187;28;20771;-63
2021/11/06 08:40:46;;;;;;;12.17;8.43;;;;;;;;;;5090771;28;20225;-62
2021/11/06 08:43:14;;;;;;;11.97;8.23;;;;;;;;;;5100903;28;20288;-63
2021/11/06 08:45:42;;;;;;;12.87;8.47;;;;;;;;;;5100406;28;20212;-63
2021/11/06 08:48:10;;;;;;;13.90;7.57;;;;;;;;;;5100421;28;20583;-63
2021/11/06 08:50:38;;;;;;;17.03;8.07;;;;;;;;;;5100429;28;20651;-63
2021/11/06 08:53:06;;;;;;;11.37;7.80;;;;;;;;;;5100415;28;20641;-63
2021/11/06 08:55:34;;;;;;;10.93;8.03;;;;;;;;;;5100498;28;20209;-63
2021/11/06 08:58:04;;;;;;;15.50;7.83;;;;;;;;;;5100230;28;20684;-62
2021/11/06 09:00:34;;;;;;;12.77;7.37;;;;;;;;;;5099991;28;20594;-63
2021/11/06 09:03:04;;;;;;;9.70;7.17;;;;;;;;;;5099760;28;20245;-63
2021/11/06 09:05:32;;;;;;;10.17;6.93;;;;;;;;;;5100371;28;20213;-63
2021/11/06 09:08:19;;;;;;;9.57;7.60;;;;;;;;;;5094058;28;20244;-63
2021/11/06 09:10:47;;;;;;;13.83;7.60;;;;;;;;;;5095844;28;20284;-63
2021/11/06 09:13:17;;;;;;;9.57;6.87;;;;;;;;;;5098092;28;20652;-63
2021/11/06 09:15:45;;;;;;;12.40;7.30;;;;;;;;;;5096156;28;20202;-62
2021/11/06 09:18:14;;;;;;;12.57;7.80;;;;;;;;;;5097121;28;20224;-63
2021/11/06 09:20:42;;;;;;;9.80;7.23;;;;;;;;;;5095951;28;20217;-63
2021/11/06 09:23:10;;;;;;;11.17;7.93;;;;;;;;;;5093541;28;20209;-63
2021/11/06 09:25:38;;;;;;;11.10;7.43;;;;;;;;;;5098260;28;20201;-63
2021/11/06 09:28:06;;;;;;;10.87;7.27;;;;;;;;;;5084266;28;20692;-62
2021/11/06 09:30:35;;;;;;;10.13;6.70;;;;;;;;;;5095294;28;20204;-62
2021/11/06 09:33:03;;;;;;;11.47;7.50;;;;;;;;;;5095288;28;20193;-62
2021/11/06 09:35:32;;;;;;;11.43;6.63;;;;;;;;;;5096553;28;20261;-63
2021/11/06 09:38:00;;;;;;;9.77;7.03;;;;;;;;;;5093687;28;20312;-62
2021/11/06 09:40:28;;;;;;;9.97;7.07;;;;;;;;;;5096396;28;20218;-62
2021/11/06 09:42:56;;;;;;;11.03;7.47;;;;;;;;;;5097030;28;20280;-63
2021/11/06 09:45:24;;;;;;;11.83;7.40;;;;;;;;;;5095335;28;20280;-62
2021/11/06 09:47:54;;;;;;;9.60;7.00;;;;;;;;;;5093600;28;20632;-62
2021/11/06 09:50:23;;;;;;;9.03;6.53;;;;;;;;;;5095965;28;20276;-63
2021/11/06 09:52:52;;;;;;;9.20;7.33;;;;;;;;;;5092859;28;20213;-63
2021/11/06 09:55:21;;;;;;;9.20;6.87;;;;;;;;;;5097904;28;20284;-63
2021/11/06 09:57:51;;;;;;;11.10;7.37;;;;;;;;;;5094304;28;20289;-63
2021/11/06 10:00:21;;;;;;;11.93;7.67;;;;;;;;;;5095854;28;20228;-63
2021/11/06 10:02:50;;;;;;;11.03;7.37;;;;;;;;;;5093227;28;20261;-63
2021/11/06 10:05:39;;;;;;;12.17;8.23;;;;;;;;;;5095652;28;20204;-63
2021/11/06 10:08:14;;;;;;;10.70;7.00;;;;;;;;;;5093708;28;20300;-63
2021/11/06 10:10:43;;;;;;;13.20;7.97;;;;;;;;;;5093811;28;20201;-63
2021/11/06 10:13:11;;;;;;;11.20;8.03;;;;;;;;;;5096142;28;20217;-63
2021/11/06 10:15:43;;;;;;;12.53;7.60;;;;;;;;;;5089898;28;20235;-63
2021/11/06 10:18:14;;;;;;;10.10;7.03;;;;;;;;;;5089479;28;20661;-63
2021/11/06 10:20:45;;;;;;;11.17;7.40;;;;;;;;;;5091149;28;20226;-63
2021/11/06 10:23:13;;;;;;;10.83;6.47;;;;;;;;;;5089292;28;20713;-63
2021/11/06 10:25:41;;;;;;;9.83;7.40;;;;;;;;;;5093068;28;20201;-63
2021/11/06 10:28:12;;;;;;;10.23;6.03;;;;;;;;;;5088130;28;20289;-63
2021/11/06 10:30:41;;;;;;;11.43;8.00;;;;;;;;;;5090217;28;20740;-63
2021/11/06 10:33:11;;;;;;;11.63;7.77;;;;;;;;;;5090045;28;20281;-63
2021/11/06 10:35:40;;;;;;;12.13;7.67;;;;;;;;;;5090573;28;20285;-63
2021/11/06 10:38:11;;;;;;;9.83;6.77;;;;;;;;;;5088600;28;20716;-63
2021/11/06 10:40:41;;;;;;;9.87;6.77;;;;;;;;;;5090010;28;20214;-62
2021/11/06 10:43:11;;;;;;;10.40;7.07;;;;;;;;;;5090933;28;20197;-63
2021/11/06 10:45:43;;;;;;;12.03;7.80;;;;;;;;;;5088209;28;20293;-62
2021/11/06 10:48:12;;;;;;;9.67;7.47;;;;;;;;;;5089353;28;20305;-63
2021/11/06 10:50:50;;;;;;;9.30;7.27;;;;;;;;;;5089347;28;20206;-62
2021/11/06 10:53:33;;;;;;;9.47;7.27;;;;;;;;;;5090730;28;20285;-63
2021/11/06 10:56:02;;;;;;;9.43;6.80;;;;;;;;;;5090941;28;20285;-62
2021/11/06 10:58:31;;;;;;;9.83;6.80;;;;;;;;;;5089124;28;20256;-63
2021/11/06 11:01:00;;;;;;;12.10;7.70;;;;;;;;;;5089733;28;20213;-63
2021/11/06 11:03:29;;;;;;;10.87;7.30;;;;;;;;;;5089049;28;20317;-63
2021/11/06 11:05:58;;;;;;;10.20;6.80;;;;;;;;;;5089679;28;20261;-62
2021/11/06 11:08:28;;;;;;;8.90;6.47;;;;;;;;;;5089141;28;20257;-63
2021/11/06 11:11:05;;;;;;;9.43;7.43;;;;;;;;;;5089237;28;20202;-63
2021/11/06 11:13:33;;;;;;;13.87;8.10;;;;;;;;;;5088869;28;20672;-63
2021/11/06 11:16:10;;;;;;;9.00;7.03;;;;;;;;;;5088785;28;20289;-63
2021/11/06 11:18:40;;;;;;;10.53;7.33;;;;;;;;;;5088772;28;20309;-63
2021/11/06 11:21:09;;;;;;;12.03;7.80;;;;;;;;;;5089099;28;20221;-63
2021/11/06 11:23:39;;;;;;;9.10;7.50;;;;;;;;;;5089330;28;20204;-63
2021/11/06 11:26:07;;;;;;;13.80;8.53;;;;;;;;;;5089252;28;20281;-63
2021/11/06 11:28:35;;;;;;;11.60;7.80;;;;;;;;;;5090536;28;20223;-63
2021/11/06 11:31:04;;;;;;;10.97;7.70;;;;;;;;;;5093977;28;20272;-63
2021/11/06 11:33:35;;;;;;;12.13;7.70;;;;;;;;;;5091401;28;20263;-62
2021/11/06 11:36:04;;;;;;;11.50;7.80;;;;;;;;;;5090277;28;20201;-63
2021/11/06 11:38:32;;;;;;;10.23;7.17;;;;;;;;;;5092791;28;20583;-63
2021/11/06 11:41:15;;;;;;;8.27;6.27;;;;;;;;;;5088679;28;20226;-62
2021/11/06 11:43:49;;;;;;;9.47;7.53;;;;;;;;;;5086881;28;20219;-63
2021/11/06 11:46:22;;;;;;;10.63;6.50;;;;;;;;;;5096907;28;20205;-63
2021/11/06 11:48:51;;;;;;;11.70;7.03;;;;;;;;;;5097659;28;20341;-63
2021/11/06 11:51:28;;;;;;;9.60;7.07;;;;;;;;;;5097437;28;20284;-63
2021/11/06 11:54:00;;;;;;;13.07;8.10;;;;;;;;;;5097584;28;20259;-63
2021/11/06 11:56:29;;;;;;;10.57;6.93;;;;;;;;;;5097517;28;20545;-63
2021/11/06 11:58:59;;;;;;;9.60;6.97;;;;;;;;;;5097182;28;20217;-63
2021/11/06 12:01:27;;;;;;;10.27;7.27;;;;;;;;;;5101224;28;20229;-63
2021/11/06 12:03:57;;;;;;;11.77;8.40;;;;;;;;;;5096158;28;20220;-63
2021/11/06 12:06:26;;;;;;;8.37;7.13;;;;;;;;;;5097371;28;20288;-62
2021/11/06 12:08:57;;;;;;;11.60;7.67;;;;;;;;;;5097123;28;20636;-62
2021/11/06 12:11:33;;;;;;;9.03;6.87;;;;;;;;;;5095028;28;20656;-62
2021/11/06 12:14:16;;;;;;;11.00;7.83;;;;;;;;;;5094269;28;20664;-62
2021/11/06 12:16:46;;;;;;;8.23;7.03;;;;;;;;;;5095130;28;20283;-62
2021/11/06 12:19:32;;;;;;;10.13;7.27;;;;;;;;;;5094426;28;20224;-62
2021/11/06 12:22:06;;;;;;;9.57;6.97;;;;;;;;;;5092811;28;20579;-63
2021/11/06 12:24:34;;;;;;;10.63;7.00;;;;;;;;;;5097544;28;20225;-62
2021/11/06 12:27:04;;;;;;;9.83;6.70;;;;;;;;;;5097228;28;20200;-62
2021/11/06 12:29:37;;;;;;;9.17;6.73;;;;;;;;;;5099794;28;20217;-63
2021/11/06 12:32:19;;;;;;;8.17;6.43;;;;;;;;;;5097367;28;20205;-62
2021/11/06 12:34:48;;;;;;;9.60;6.93;;;;;;;;;;5096648;28;20288;-62
2021/11/06 12:37:34;;;;;;;9.97;5.63;;;;;;;;;;5096351;28;20270;-62
2021/11/06 12:40:04;;;;;;;8.90;6.30;;;;;;;;;;5092952;28;20672;-62
2021/11/06 12:42:33;;;;;;;9.10;6.53;;;;;;;;;;5098762;28;20224;-62
2021/11/06 12:45:06;;;;;;;10.13;6.17;;;;;;;;;;5093508;28;20209;-62
2021/11/06 12:47:35;;;;;;;8.40;5.87;;;;;;;;;;5080909;28;20273;-63
2021/11/06 12:50:16;;;;;;;7.37;6.17;;;;;;;;;;5086012;28;20209;-62
2021/11/06 12:52:44;;;;;;;7.37;5.70;;;;;;;;;;5100613;28;20209;-62
2021/11/06 12:55:12;;;;;;;6.67;5.37;;;;;;;;;;5100676;28;20288;-62
2021/11/06 12:57:41;;;;;;;6.00;5.03;;;;;;;;;;5100817;28;20265;-62
2021/11/06 13:00:13;;;;;;;12.73;7.80;;;;;;;;;;5100840;28;20255;-62
2021/11/06 13:02:44;;;;;;;6.73;5.07;;;;;;;;;;5099893;28;20570;-62
2021/11/06 13:05:12;;;;;;;6.63;5.30;;;;;;;;;;5100675;28;20288;-62
2021/11/06 13:07:40;;;;;;;6.77;5.27;;;;;;;;;;5099879;28;20679;-62
2021/11/06 13:10:20;;;;;;;6.47;5.40;;;;;;;;;;5100277;28;20271;-62
2021/11/06 13:12:50;;;;;;;7.13;5.73;;;;;;;;;;5100372;28;20657;-62
2021/11/06 13:15:19;;;;;;;6.53;4.90;;;;;;;;;;5100228;28;20737;-62
2021/11/06 13:17:47;;;;;;;5.00;4.30;;;;;;;;;;5100332;28;20217;-62
2021/11/06 13:20:16;;;;;;;8.20;5.23;;;;;;;;;;5100265;28;20206;-62
2021/11/06 13:22:47;;;;;;;6.63;4.80;;;;;;;;;;5100264;28;20320;-62
2021/11/06 13:25:17;;;;;;;9.27;5.23;;;;;;;;;;5099399;28;20289;-62
2021/11/06 13:27:47;;;;;;;4.67;4.10;;;;;;;;;;5099983;28;20204;-62
2021/11/06 13:30:16;;;;;;;5.30;4.07;;;;;;;;;;5100449;28;20227;-62
2021/11/06 13:32:53;;;;;;;6.77;4.60;;;;;;;;;;5100239;28;20288;-62
2021/11/06 13:35:21;;;;;;;6.33;4.60;;;;;;;;;;5100440;28;20268;-62
2021/11/06 13:38:04;;;;;;;7.13;4.13;;;;;;;;;;5100456;28;20265;-62
2021/11/06 13:40:41;;;;;;;5.83;4.60;;;;;;;;;;5087622;28;20288;-63
2021/11/06 13:43:13;;;;;;;7.33;4.77;;;;;;;;;;5100930;28;20256;-62
2021/11/06 13:45:41;;;;;;;6.90;4.83;;;;;;;;;;5100193;28;20288;-63
2021/11/06 13:48:20;;;;;;;6.47;4.57;;;;;;;;;;5100079;28;20312;-63
2021/11/06 13:50:48;;;;;;;4.63;4.20;;;;;;;;;;5099961;28;20224;-63
2021/11/06 13:53:24;;;;;;;6.80;4.77;;;;;;;;;;5100053;28;20285;-62
2021/11/06 13:55:57;;;;;;;6.03;4.17;;;;;;;;;;5096443;28;20234;-62
2021/11/06 13:58:26;;;;;;;6.83;4.37;;;;;;;;;;5089093;28;20309;-63
2021/11/06 14:00:54;;;;;;;4.57;4.00;;;;;;;;;;5091129;28;20208;-62
2021/11/06 14:03:24;;;;;;;5.30;4.00;;;;;;;;;;5088132;28;20234;-62
2021/11/06 14:05:52;;;;;;;5.77;4.20;;;;;;;;;;5091239;28;20288;-62
2021/11/06 14:08:20;;;;;;;6.60;4.07;;;;;;;;;;5088757;28;20218;-62
2021/11/06 14:10:48;;;;;;;4.53;3.93;;;;;;;;;;5088750;28;20265;-63
2021/11/06 14:13:17;;;;;;;4.50;3.70;;;;;;;;;;5089063;28;20290;-62
2021/11/06 14:15:53;;;;;;;5.43;4.00;;;;;;;;;;5089984;28;20204;-62
2021/11/06 14:18:23;;;;;;;5.07;4.03;;;;;;;;;;5088250;28;20253;-63
2021/11/06 14:20:55;;;;;;;5.03;3.30;;;;;;;;;;5090334;28;20284;-63
2021/11/06 14:23:29;;;;;;;4.83;3.70;;;;;;;;;;5087864;28;20630;-63
2021/11/06 14:26:09;;;;;;;5.73;3.50;;;;;;;;;;5089842;28;20299;-63
2021/11/06 14:28:45;;;;;;;5.20;3.07;;;;;;;;;;5092538;28;20308;-63
2021/11/06 14:31:14;;;;;;;4.33;3.53;;;;;;;;;;5090023;28;20717;-63
2021/11/06 14:33:43;;;;;;;4.00;3.43;;;;;;;;;;5091573;28;20202;-63
2021/11/06 14:36:14;;;;;;;4.40;3.87;;;;;;;;;;5089809;28;20568;-64
2021/11/06 14:39:06;;;;;;;5.37;3.40;;;;;;;;;;5087459;28;20304;-63
2021/11/06 14:41:42;;;;;;;4.43;3.70;;;;;;;;;;5074820;28;20204;-63
2021/11/06 14:44:11;;;;;;;6.37;3.37;;;;;;;;;;5088565;28;20701;-63
2021/11/06 14:46:43;;;;;;;4.97;3.53;;;;;;;;;;5088656;28;20206;-63
2021/11/06 14:49:11;;;;;;;4.77;3.90;;;;;;;;;;5090540;28;20280;-63